createdAt,value
2023-03-01T00:01:02.735Z,1.80
2023-03-01T00:03:29.439Z,1.80
2023-03-01T00:05:56.209Z,1.80
2023-03-01T00:08:22.878Z,1.80
2023-03-01T00:10:49.582Z,1.80
2023-03-01T00:13:16.242Z,1.70
2023-03-01T00:15:42.901Z,1.70
2023-03-01T00:18:09.457Z,1.70
2023-03-01T00:20:36.339Z,1.70
2023-03-01T00:23:03.059Z,1.70
2023-03-01T00:25:29.801Z,1.70
2023-03-01T00:27:56.435Z,1.70
2023-03-01T00:30:23.081Z,1.70
2023-03-01T00:32:49.764Z,1.70
2023-03-01T00:35:16.486Z,1.60
2023-03-01T00:37:43.371Z,1.50
2023-03-01T00:40:11.144Z,1.40
2023-03-01T00:42:39.101Z,1.40
2023-03-01T00:45:06.604Z,1.40
2023-03-01T00:47:33.342Z,1.40
2023-03-01T00:50:00.138Z,1.30
2023-03-01T00:52:26.713Z,1.40
2023-03-01T00:54:54.182Z,1.40
2023-03-01T00:57:20.781Z,1.40
2023-03-01T00:59:47.353Z,1.40
2023-03-01T01:02:13.941Z,1.40
2023-03-01T01:04:40.810Z,1.40
2023-03-01T01:07:08.077Z,1.40
2023-03-01T01:09:35.300Z,1.50
2023-03-01T01:12:02.069Z,1.50
2023-03-01T01:14:28.777Z,1.60
2023-03-01T01:16:55.743Z,1.60
2023-03-01T01:19:22.404Z,1.50
2023-03-01T01:21:49.267Z,1.50
2023-03-01T01:24:16.770Z,1.50
2023-03-01T01:26:44.226Z,1.50
2023-03-01T01:29:12.131Z,1.60
2023-03-01T01:31:40.843Z,1.60
2023-03-01T01:34:11.009Z,1.60
2023-03-01T01:36:37.571Z,1.60
2023-03-01T01:39:04.804Z,1.70
2023-03-01T01:41:31.929Z,1.80
2023-03-01T01:44:18.134Z,1.90
2023-03-01T01:46:56.807Z,1.90
2023-03-01T01:49:32.857Z,1.90
2023-03-01T01:52:28.097Z,1.90
2023-03-01T01:55:16.626Z,1.80
2023-03-01T01:57:46.342Z,1.70
2023-03-01T02:00:15.297Z,1.70
2023-03-01T02:02:44.106Z,1.50
2023-03-01T02:05:21.239Z,1.50
2023-03-01T02:07:49.542Z,1.50
2023-03-01T02:10:16.889Z,1.40
2023-03-01T02:12:44.066Z,1.50
2023-03-01T02:15:11.096Z,1.40
2023-03-01T02:17:38.792Z,1.50
2023-03-01T02:20:15.095Z,1.50
2023-03-01T02:22:45.901Z,1.50
2023-03-01T02:25:28.760Z,1.50
2023-03-01T02:27:58.177Z,1.50
2023-03-01T02:30:25.987Z,1.60
2023-03-01T02:33:03.930Z,1.60
2023-03-01T02:35:34.694Z,1.50
2023-03-01T02:38:02.688Z,1.50
2023-03-01T02:40:31.584Z,1.50
2023-03-01T02:42:59.872Z,1.30
2023-03-01T02:45:27.961Z,1.40
2023-03-01T02:47:56.507Z,1.40
2023-03-01T02:50:35.994Z,1.40
2023-03-01T02:53:29.361Z,1.40
2023-03-01T02:55:56.361Z,1.50
2023-03-01T02:58:22.949Z,1.40
2023-03-01T03:00:50.242Z,1.50
2023-03-01T03:03:19.035Z,1.40
2023-03-01T03:05:46.317Z,1.30
2023-03-01T03:08:13.283Z,1.30
2023-03-01T03:10:41.947Z,1.40
2023-03-01T03:13:11.679Z,1.30
2023-03-01T03:15:39.828Z,1.20
2023-03-01T03:18:10.820Z,1.20
2023-03-01T03:20:38.726Z,1.10
2023-03-01T03:23:06.081Z,1.10
2023-03-01T03:25:32.770Z,1.10
2023-03-01T03:27:59.798Z,1.10
2023-03-01T03:30:29.682Z,1.20
2023-03-01T03:32:57.499Z,1.30
2023-03-01T03:35:33.457Z,1.30
2023-03-01T03:38:02.663Z,1.30
2023-03-01T03:40:36.829Z,1.30
2023-03-01T03:43:05.108Z,1.30
2023-03-01T03:45:34.387Z,1.20
2023-03-01T03:48:02.836Z,1.20
2023-03-01T03:50:29.871Z,1.20
2023-03-01T03:52:56.559Z,1.30
2023-03-01T03:55:23.298Z,1.30
2023-03-01T03:57:52.331Z,1.40
2023-03-01T04:00:21.818Z,1.30
2023-03-01T04:02:49.591Z,1.30
2023-03-01T04:05:17.958Z,1.20
2023-03-01T04:07:45.760Z,1.20
2023-03-01T04:10:17.291Z,1.20
2023-03-01T04:12:44.149Z,1.20
2023-03-01T04:15:15.147Z,1.20
2023-03-01T04:17:43.405Z,1.30
2023-03-01T04:20:18.243Z,1.30
2023-03-01T04:22:48.379Z,1.30
2023-03-01T04:25:15.502Z,1.40
2023-03-01T04:27:42.380Z,1.40
2023-03-01T04:30:09.810Z,1.40
2023-03-01T04:32:36.528Z,1.50
2023-03-01T04:35:03.250Z,1.40
2023-03-01T04:37:30.644Z,1.50
2023-03-01T04:39:57.402Z,1.50
2023-03-01T04:42:24.120Z,1.50
2023-03-01T04:44:52.474Z,1.50
2023-03-01T04:47:19.084Z,1.50
2023-03-01T04:49:45.732Z,1.50
2023-03-01T04:52:12.496Z,1.40
2023-03-01T04:54:39.204Z,1.40
2023-03-01T04:57:05.910Z,1.40
2023-03-01T04:59:32.576Z,1.40
2023-03-01T05:02:01.270Z,1.40
2023-03-01T05:04:27.937Z,1.40
2023-03-01T05:06:54.710Z,1.40
2023-03-01T05:09:21.332Z,1.50
2023-03-01T05:11:48.155Z,1.60
2023-03-01T05:14:14.826Z,1.50
2023-03-01T05:16:41.572Z,1.50
2023-03-01T05:19:16.027Z,1.50
2023-03-01T05:22:02.596Z,1.50
2023-03-01T05:24:30.267Z,1.40
2023-03-01T05:26:57.082Z,1.30
2023-03-01T05:29:25.974Z,1.20
2023-03-01T05:31:58.968Z,1.40
2023-03-01T05:34:26.794Z,1.40
2023-03-01T05:36:54.075Z,1.40
2023-03-01T05:39:23.359Z,1.40
2023-03-01T05:42:00.247Z,1.50
2023-03-01T05:44:30.540Z,1.60
2023-03-01T05:46:57.693Z,1.50
2023-03-01T05:49:24.956Z,1.50
2023-03-01T05:51:53.236Z,1.40
2023-03-01T05:54:21.362Z,1.40
2023-03-01T05:56:48.030Z,1.50
2023-03-01T05:59:16.000Z,1.50
2023-03-01T06:01:42.953Z,1.30
2023-03-01T06:04:09.674Z,1.40
2023-03-01T06:06:40.487Z,1.40
2023-03-01T06:09:09.227Z,1.40
2023-03-01T06:11:37.187Z,1.50
2023-03-01T06:14:04.507Z,1.50
2023-03-01T06:16:31.465Z,1.50
2023-03-01T06:18:58.337Z,1.50
2023-03-01T06:21:25.670Z,1.50
2023-03-01T06:23:52.858Z,1.50
2023-03-01T06:26:19.837Z,1.50
2023-03-01T06:28:47.071Z,1.50
2023-03-01T06:31:14.216Z,1.50
2023-03-01T06:33:40.904Z,1.50
2023-03-01T06:36:08.440Z,1.50
2023-03-01T06:38:35.838Z,1.50
2023-03-01T06:41:02.853Z,1.50
2023-03-01T06:43:29.504Z,1.40
2023-03-01T06:45:56.791Z,1.40
2023-03-01T06:48:23.383Z,1.30
2023-03-01T06:50:50.086Z,1.40
2023-03-01T06:53:16.758Z,1.30
2023-03-01T06:55:43.397Z,1.30
2023-03-01T06:58:10.403Z,1.30
2023-03-01T07:00:37.171Z,1.30
2023-03-01T07:03:04.518Z,1.30
2023-03-01T07:05:31.931Z,1.40
2023-03-01T07:07:58.628Z,1.40
2023-03-01T07:10:25.565Z,1.40
2023-03-01T07:12:56.404Z,1.40
2023-03-01T07:15:23.322Z,1.40
2023-03-01T07:17:51.600Z,1.60
2023-03-01T07:20:19.633Z,1.50
2023-03-01T07:22:46.318Z,1.60
2023-03-01T07:25:13.096Z,1.60
2023-03-01T07:27:39.785Z,1.50
2023-03-01T07:30:07.359Z,1.50
2023-03-01T07:32:34.355Z,1.40
2023-03-01T07:35:01.095Z,1.40
2023-03-01T07:37:27.906Z,1.50
2023-03-01T07:39:54.505Z,1.40
2023-03-01T07:42:21.118Z,1.50
2023-03-01T07:44:47.785Z,1.60
2023-03-01T07:47:15.063Z,1.50
2023-03-01T07:49:42.058Z,1.60
2023-03-01T07:52:12.037Z,1.50
2023-03-01T07:54:39.610Z,1.60
2023-03-01T07:57:06.854Z,1.50
2023-03-01T07:59:34.390Z,1.50
2023-03-01T08:02:01.185Z,1.50
2023-03-01T08:04:28.576Z,1.60
2023-03-01T08:06:56.261Z,1.70
2023-03-01T08:09:23.413Z,1.70
2023-03-01T08:11:50.145Z,1.60
2023-03-01T08:14:17.069Z,1.60
2023-03-01T08:16:43.840Z,1.60
2023-03-01T08:19:13.040Z,1.60
2023-03-01T08:21:40.549Z,1.70
2023-03-01T08:24:08.585Z,1.80
2023-03-01T08:26:35.428Z,1.70
2023-03-01T08:29:02.404Z,1.70
2023-03-01T08:31:36.654Z,1.70
2023-03-01T08:34:06.577Z,1.70
2023-03-01T08:36:38.037Z,1.80
2023-03-01T08:39:05.908Z,1.80
2023-03-01T08:41:32.664Z,1.70
2023-03-01T08:43:59.950Z,1.70
2023-03-01T08:46:39.872Z,1.80
2023-03-01T08:49:08.635Z,1.80
2023-03-01T08:51:38.054Z,1.90
2023-03-01T08:54:12.524Z,1.80
2023-03-01T08:56:39.861Z,1.80
2023-03-01T08:59:06.698Z,1.80
2023-03-01T09:01:33.657Z,1.80
2023-03-01T09:04:00.799Z,1.80
2023-03-01T09:06:27.509Z,1.80
2023-03-01T09:08:55.645Z,1.90
2023-03-01T09:11:23.137Z,1.90
2023-03-01T09:13:50.420Z,1.90
2023-03-01T09:16:18.970Z,1.80
2023-03-01T09:18:49.679Z,1.70
2023-03-01T09:21:18.316Z,1.80
2023-03-01T09:23:51.312Z,1.80
2023-03-01T09:26:22.763Z,1.70
2023-03-01T09:28:51.951Z,1.80
2023-03-01T09:31:20.755Z,1.90
2023-03-01T09:33:49.426Z,1.90
2023-03-01T09:36:19.370Z,1.90
2023-03-01T09:38:46.306Z,2.00
2023-03-01T09:41:27.609Z,1.90
2023-03-01T09:44:00.658Z,1.90
2023-03-01T09:46:28.241Z,1.90
2023-03-01T09:49:13.159Z,2.00
2023-03-01T09:51:39.824Z,1.90
2023-03-01T09:54:09.282Z,1.90
2023-03-01T09:56:47.744Z,2.00
2023-03-01T09:59:31.122Z,1.90
2023-03-01T10:02:24.490Z,2.00
2023-03-01T10:05:10.618Z,2.00
2023-03-01T10:08:03.311Z,2.00
2023-03-01T10:10:39.216Z,2.10
2023-03-01T10:13:24.119Z,2.00
2023-03-01T10:16:00.150Z,2.00
2023-03-01T10:18:30.895Z,2.00
2023-03-01T10:21:16.288Z,2.00
2023-03-01T10:23:43.149Z,2.00
2023-03-01T10:26:18.843Z,2.10
2023-03-01T10:28:54.344Z,2.00
2023-03-01T10:31:30.393Z,1.90
2023-03-01T10:33:58.089Z,2.00
2023-03-01T10:36:24.964Z,2.00
2023-03-01T10:38:57.709Z,2.00
2023-03-01T10:41:26.420Z,2.10
2023-03-01T10:43:58.741Z,2.10
2023-03-01T10:46:37.303Z,2.20
2023-03-01T10:49:26.626Z,2.20
2023-03-01T10:51:54.738Z,2.30
2023-03-01T10:54:30.635Z,2.30
2023-03-01T10:57:06.620Z,2.40
2023-03-01T10:59:36.180Z,2.40
2023-03-01T11:02:24.870Z,2.40
2023-03-01T11:05:13.120Z,2.40
2023-03-01T11:07:49.083Z,2.40
2023-03-01T11:10:32.300Z,2.40
2023-03-01T11:13:20.975Z,2.30
2023-03-01T11:16:08.615Z,2.30
2023-03-01T11:18:46.880Z,2.20
2023-03-01T11:21:16.200Z,2.20
2023-03-01T11:23:46.333Z,2.20
2023-03-01T11:26:16.268Z,2.20
2023-03-01T11:28:45.608Z,2.30
2023-03-01T11:31:13.855Z,2.30
2023-03-01T11:34:07.128Z,2.30
2023-03-01T11:36:54.859Z,2.40
2023-03-01T11:39:40.083Z,2.40
2023-03-01T11:42:21.227Z,2.40
2023-03-01T11:44:51.403Z,2.50
2023-03-01T11:47:34.246Z,2.60
2023-03-01T11:50:05.358Z,2.60
2023-03-01T11:52:52.189Z,2.70
2023-03-01T11:55:33.047Z,2.70
2023-03-01T11:58:12.198Z,2.60
2023-03-01T12:01:26.831Z,2.70
2023-03-01T12:04:16.823Z,2.80
2023-03-01T12:07:05.020Z,2.80
2023-03-01T12:09:40.248Z,2.60
2023-03-01T12:12:29.204Z,2.60
2023-03-01T12:15:21.779Z,2.60
2023-03-01T12:18:11.756Z,2.60
2023-03-01T12:20:57.202Z,2.60
2023-03-01T12:23:32.677Z,2.70
2023-03-01T12:26:34.059Z,2.70
2023-03-01T12:29:33.132Z,2.80
2023-03-01T12:32:36.333Z,2.80
2023-03-01T12:35:21.370Z,2.80
2023-03-01T12:37:59.981Z,2.90
2023-03-01T12:40:35.746Z,2.90
2023-03-01T12:43:16.932Z,2.80
2023-03-01T12:46:10.155Z,2.70
2023-03-01T12:48:42.612Z,2.70
2023-03-01T12:51:15.030Z,2.70
2023-03-01T12:53:51.641Z,2.70
2023-03-01T12:56:25.008Z,2.80
2023-03-01T12:59:13.085Z,2.80
2023-03-01T13:01:52.952Z,2.80
2023-03-01T13:04:38.030Z,2.80
2023-03-01T13:07:10.629Z,2.90
2023-03-01T13:09:49.129Z,2.70
2023-03-01T13:12:49.626Z,2.70
2023-03-01T13:15:25.549Z,2.80
2023-03-01T13:17:55.131Z,2.80
2023-03-01T13:20:42.588Z,2.80
2023-03-01T13:23:21.393Z,2.80
2023-03-01T13:26:18.748Z,2.70
2023-03-01T13:28:45.573Z,2.70
2023-03-01T13:31:32.305Z,2.80
2023-03-01T13:34:08.178Z,2.90
2023-03-01T13:36:37.605Z,2.90
2023-03-01T13:39:27.366Z,2.90
2023-03-01T13:41:56.794Z,2.90
2023-03-01T13:44:33.788Z,2.90
2023-03-01T13:47:07.403Z,2.80
2023-03-01T13:49:59.952Z,2.90
2023-03-01T13:52:44.701Z,2.90
2023-03-01T13:55:43.350Z,2.80
2023-03-01T13:58:15.943Z,2.90
2023-03-01T14:00:42.935Z,2.90
2023-03-01T14:03:20.861Z,2.90
2023-03-01T14:06:19.832Z,2.90
2023-03-01T14:08:50.446Z,2.90
2023-03-01T14:11:38.780Z,2.80
2023-03-01T14:14:20.297Z,2.80
2023-03-01T14:17:25.156Z,2.80
2023-03-01T14:19:58.507Z,2.90
2023-03-01T14:22:30.927Z,3.00
2023-03-01T14:25:04.187Z,2.90
2023-03-01T14:27:40.463Z,2.80
2023-03-01T14:30:25.950Z,2.80
2023-03-01T14:32:58.023Z,2.90
2023-03-01T14:35:28.460Z,2.90
2023-03-01T14:37:55.170Z,2.90
2023-03-01T14:40:33.512Z,2.90
2023-03-01T14:43:03.563Z,2.90
2023-03-01T14:45:31.787Z,2.90
2023-03-01T14:48:02.994Z,2.80
2023-03-01T14:50:36.179Z,3.00
2023-03-01T14:53:06.321Z,3.10
2023-03-01T14:55:41.485Z,3.20
2023-03-01T14:58:14.259Z,3.30
2023-03-01T15:00:50.730Z,3.30
2023-03-01T15:03:36.010Z,3.20
2023-03-01T15:06:04.180Z,3.00
2023-03-01T15:08:36.909Z,3.00
2023-03-01T15:11:09.004Z,2.90
2023-03-01T15:13:36.727Z,3.00
2023-03-01T15:16:10.466Z,3.00
2023-03-01T15:18:38.089Z,3.00
2023-03-01T15:21:29.916Z,3.00
2023-03-01T15:24:21.079Z,3.00
2023-03-01T15:27:07.928Z,3.00
2023-03-01T15:29:41.298Z,2.90
2023-03-01T15:32:32.854Z,2.90
2023-03-01T15:35:01.155Z,3.00
2023-03-01T15:37:49.397Z,2.90
2023-03-01T15:40:24.748Z,2.90
2023-03-01T15:42:52.751Z,2.90
2023-03-01T15:45:26.506Z,2.90
2023-03-01T15:48:27.259Z,2.80
2023-03-01T15:50:59.225Z,2.80
2023-03-01T15:53:28.628Z,2.80
2023-03-01T15:55:56.540Z,2.70
2023-03-01T15:58:26.744Z,2.60
2023-03-01T16:01:01.315Z,2.60
2023-03-01T16:03:29.298Z,2.70
2023-03-01T16:05:56.143Z,2.70
2023-03-01T16:08:22.813Z,2.70
2023-03-01T16:10:51.919Z,2.70
2023-03-01T16:13:18.704Z,2.60
2023-03-01T16:15:45.698Z,2.60
2023-03-01T16:18:12.618Z,2.60
2023-03-01T16:20:40.929Z,2.70
2023-03-01T16:23:09.137Z,2.60
2023-03-01T16:25:37.068Z,2.60
2023-03-01T16:28:09.406Z,2.60
2023-03-01T16:30:37.540Z,2.60
2023-03-01T16:33:19.130Z,2.70
2023-03-01T16:35:51.894Z,2.60
2023-03-01T16:38:18.595Z,2.60
2023-03-01T16:40:52.084Z,3.30
2023-03-01T16:43:18.781Z,3.10
2023-03-01T16:45:46.262Z,3.00
2023-03-01T16:48:13.463Z,2.90
2023-03-01T16:50:40.280Z,2.80
2023-03-01T16:53:07.077Z,2.80
2023-03-01T16:55:34.308Z,2.70
2023-03-01T16:58:01.793Z,2.70
2023-03-01T17:00:28.681Z,2.70
2023-03-01T17:02:55.659Z,2.70
2023-03-01T17:05:24.616Z,2.70
2023-03-01T17:07:51.641Z,2.80
2023-03-01T17:10:18.487Z,2.80
2023-03-01T17:12:45.200Z,2.80
2023-03-01T17:15:12.788Z,2.70
2023-03-01T17:17:39.620Z,2.70
2023-03-01T17:20:06.720Z,2.70
2023-03-01T17:22:33.457Z,2.70
2023-03-01T17:25:00.859Z,2.70
2023-03-01T17:27:27.646Z,2.60
2023-03-01T17:29:54.320Z,2.60
2023-03-01T17:32:21.125Z,2.50
2023-03-01T17:34:48.047Z,2.60
2023-03-01T17:37:14.645Z,2.60
2023-03-01T17:39:41.303Z,2.50
2023-03-01T17:42:08.003Z,2.60
2023-03-01T17:44:35.107Z,2.60
2023-03-01T17:47:02.861Z,2.70
2023-03-01T17:49:30.047Z,2.60
2023-03-01T17:51:57.045Z,2.50
2023-03-01T17:54:23.974Z,2.60
2023-03-01T17:56:50.940Z,2.60
2023-03-01T17:59:18.011Z,2.60
2023-03-01T18:01:45.197Z,2.60
2023-03-01T18:04:12.255Z,2.60
2023-03-01T18:06:40.681Z,2.70
2023-03-01T18:09:07.760Z,2.70
2023-03-01T18:11:35.416Z,2.60
2023-03-01T18:14:02.293Z,2.60
2023-03-01T18:16:31.846Z,2.60
2023-03-01T18:18:59.730Z,2.60
2023-03-01T18:21:27.110Z,2.60
2023-03-01T18:23:53.788Z,2.70
2023-03-01T18:26:22.355Z,2.60
2023-03-01T18:28:51.727Z,2.50
2023-03-01T18:31:22.548Z,2.50
2023-03-01T18:33:51.749Z,2.50
2023-03-01T18:36:27.381Z,2.60
2023-03-01T18:38:56.250Z,2.60
2023-03-01T18:41:25.278Z,2.60
2023-03-01T18:43:52.604Z,2.60
2023-03-01T18:46:20.524Z,2.60
2023-03-01T18:48:48.190Z,2.40
2023-03-01T18:51:18.609Z,2.30
2023-03-01T18:53:45.323Z,2.40
2023-03-01T18:56:12.785Z,2.40
2023-03-01T18:58:42.392Z,2.30
2023-03-01T19:01:17.817Z,2.30
2023-03-01T19:03:44.910Z,2.40
2023-03-01T19:06:11.712Z,2.30
2023-03-01T19:08:40.394Z,2.40
2023-03-01T19:11:07.611Z,2.40
2023-03-01T19:13:37.289Z,2.40
2023-03-01T19:16:08.177Z,2.40
2023-03-01T19:18:36.830Z,2.40
2023-03-01T19:21:04.681Z,2.50
2023-03-01T19:23:34.877Z,2.50
2023-03-01T19:26:04.845Z,2.50
2023-03-01T19:28:31.518Z,2.40
2023-03-01T19:31:00.886Z,2.50
2023-03-01T19:33:28.634Z,2.50
2023-03-01T19:35:56.856Z,2.40
2023-03-01T19:38:23.905Z,2.50
2023-03-01T19:40:50.757Z,2.50
2023-03-01T19:43:17.491Z,2.60
2023-03-01T19:45:45.905Z,2.60
2023-03-01T19:48:13.058Z,2.60
2023-03-01T19:50:39.690Z,2.60
2023-03-01T19:53:06.562Z,2.70
2023-03-01T19:55:36.267Z,2.70
2023-03-01T19:58:03.396Z,2.70
2023-03-01T20:00:30.079Z,2.70
2023-03-01T20:02:56.705Z,2.70
2023-03-01T20:05:23.347Z,2.70
2023-03-01T20:07:51.015Z,2.80
2023-03-01T20:10:18.138Z,2.80
2023-03-01T20:12:44.794Z,2.80
2023-03-01T20:15:11.533Z,2.90
2023-03-01T20:17:38.320Z,2.90
2023-03-01T20:20:05.475Z,2.90
2023-03-01T20:22:32.108Z,2.90
2023-03-01T20:24:58.847Z,3.00
2023-03-01T20:27:25.526Z,3.00
2023-03-01T20:29:52.142Z,3.10
2023-03-01T20:32:18.930Z,3.10
2023-03-01T20:34:45.591Z,3.20
2023-03-01T20:37:12.238Z,3.20
2023-03-01T20:39:38.881Z,3.30
2023-03-01T20:42:05.606Z,3.30
2023-03-01T20:44:32.242Z,3.30
2023-03-01T20:46:58.998Z,3.30
2023-03-01T20:49:25.869Z,3.40
2023-03-01T20:51:52.468Z,3.40
2023-03-01T20:54:19.708Z,3.40
2023-03-01T20:56:47.563Z,3.40
2023-03-01T20:59:15.109Z,3.30
2023-03-01T21:01:41.958Z,3.40
2023-03-01T21:04:09.762Z,3.40
2023-03-01T21:06:37.807Z,3.40
2023-03-01T21:09:04.680Z,3.40
2023-03-01T21:11:31.861Z,3.40
2023-03-01T21:13:58.552Z,3.50
2023-03-01T21:16:25.438Z,3.50
2023-03-01T21:18:52.506Z,3.50
2023-03-01T21:21:21.972Z,3.40
2023-03-01T21:23:48.644Z,3.40
2023-03-01T21:26:19.297Z,3.50
2023-03-01T21:28:46.414Z,3.50
2023-03-01T21:31:15.590Z,3.50
2023-03-01T21:33:51.698Z,3.50
2023-03-01T21:36:19.613Z,3.50
2023-03-01T21:38:48.359Z,3.50
2023-03-01T21:41:24.107Z,3.50
2023-03-01T21:43:52.913Z,3.50
2023-03-01T21:46:22.162Z,3.40
2023-03-01T21:48:50.770Z,3.50
2023-03-01T21:51:19.256Z,3.50
2023-03-01T21:53:46.530Z,3.50
2023-03-01T21:56:18.809Z,3.60
2023-03-01T21:58:45.403Z,3.60
2023-03-01T22:01:14.877Z,3.60
2023-03-01T22:03:47.917Z,3.60
2023-03-01T22:06:25.444Z,3.60
2023-03-01T22:08:58.315Z,3.60
2023-03-01T22:11:28.664Z,3.60
2023-03-01T22:13:56.582Z,3.50
2023-03-01T22:16:26.771Z,3.50
2023-03-01T22:18:54.081Z,3.60
2023-03-01T22:21:21.282Z,3.60
2023-03-01T22:23:47.853Z,3.60
2023-03-01T22:26:32.916Z,3.50
2023-03-01T22:29:04.082Z,3.50
2023-03-01T22:31:30.924Z,3.60
2023-03-01T22:33:58.511Z,3.50
2023-03-01T22:36:25.773Z,3.50
2023-03-01T22:38:59.221Z,3.50
2023-03-01T22:41:46.049Z,3.50
2023-03-01T22:44:21.412Z,3.50
2023-03-01T22:46:48.571Z,3.40
2023-03-01T22:49:16.275Z,3.50
2023-03-01T22:51:44.128Z,3.50
2023-03-01T22:54:11.445Z,3.60
2023-03-01T22:56:39.025Z,3.60
2023-03-01T22:59:11.043Z,3.60
2023-03-01T23:01:39.927Z,3.60
2023-03-01T23:04:06.867Z,3.60
2023-03-01T23:06:34.498Z,3.60
2023-03-01T23:09:04.132Z,3.60
2023-03-01T23:11:30.874Z,3.60
2023-03-01T23:13:58.703Z,3.60
2023-03-01T23:16:26.297Z,3.60
2023-03-01T23:18:55.500Z,3.60
2023-03-01T23:21:22.866Z,3.60
2023-03-01T23:23:50.140Z,3.60
2023-03-01T23:26:18.496Z,3.60
2023-03-01T23:28:45.212Z,3.50
2023-03-01T23:31:14.176Z,3.50
2023-03-01T23:33:43.188Z,3.60
2023-03-01T23:36:20.612Z,3.60
2023-03-01T23:38:49.332Z,3.60
2023-03-01T23:41:20.636Z,3.50
2023-03-01T23:43:49.483Z,3.50
2023-03-01T23:46:18.154Z,3.50
2023-03-01T23:48:45.507Z,3.50
2023-03-01T23:51:13.207Z,3.50
2023-03-01T23:53:54.364Z,3.50
2023-03-01T23:56:26.822Z,3.50
2023-03-01T23:58:55.044Z,3.50
